createdAt,value
2022-11-15T00:02:14.395Z,100102.72
2022-11-15T00:04:44.706Z,100107.31
2022-11-15T00:07:33.240Z,100104.22
2022-11-15T00:10:04.870Z,100116.16
2022-11-15T00:12:33.590Z,100109.56
2022-11-15T00:15:03.276Z,100101.53
2022-11-15T00:17:32.070Z,100104.25
2022-11-15T00:20:01.639Z,100112.22
2022-11-15T00:22:35.127Z,100112.13
2022-11-15T00:25:05.297Z,100118.34
2022-11-15T00:27:34.846Z,100110.75
2022-11-15T00:30:03.875Z,100108.88
2022-11-15T00:32:34.127Z,100104.59
2022-11-15T00:35:02.794Z,100104.72
2022-11-15T00:37:31.440Z,100099.31
2022-11-15T00:40:00.937Z,100095.78
2022-11-15T00:42:29.593Z,100090.47
2022-11-15T00:44:59.058Z,100092.69
2022-11-15T00:47:28.533Z,100083.53
2022-11-15T00:49:58.967Z,100075.38
2022-11-15T00:52:28.377Z,100082.47
2022-11-15T00:54:57.781Z,100077.09
2022-11-15T00:57:27.236Z,100081.00
2022-11-15T00:59:56.676Z,100074.34
2022-11-15T01:02:25.346Z,100084.81
2022-11-15T01:04:54.010Z,100079.88
2022-11-15T01:07:23.544Z,100078.13
2022-11-15T01:09:53.133Z,100076.53
2022-11-15T01:12:22.687Z,100077.81
2022-11-15T01:14:52.167Z,100070.06
2022-11-15T01:17:21.662Z,100073.69
2022-11-15T01:19:51.371Z,100070.16
2022-11-15T01:22:20.961Z,100068.53
2022-11-15T01:24:51.991Z,100053.38
2022-11-15T01:27:19.829Z,100068.94
2022-11-15T01:29:49.427Z,100058.34
2022-11-15T01:32:19.282Z,100060.13
2022-11-15T01:34:48.667Z,100065.44
2022-11-15T01:37:18.103Z,100061.88
2022-11-15T01:39:45.839Z,100071.53
2022-11-15T01:42:15.799Z,100065.34
2022-11-15T01:44:50.665Z,100046.22
2022-11-15T01:47:42.032Z,100066.56
2022-11-15T01:50:24.085Z,100058.78
2022-11-15T01:52:53.732Z,100052.97
2022-11-15T01:55:27.626Z,100049.97
2022-11-15T01:58:03.610Z,100049.34
2022-11-15T02:00:33.703Z,100049.97
2022-11-15T02:03:03.845Z,100051.44
2022-11-15T02:05:34.123Z,100034.38
2022-11-15T02:08:03.999Z,100044.56
2022-11-15T02:10:33.488Z,100044.34
2022-11-15T02:13:03.761Z,100035.84
2022-11-15T02:16:07.589Z,100034.59
2022-11-15T02:18:46.187Z,100033.22
2022-11-15T02:21:53.098Z,100029.44
2022-11-15T02:25:01.239Z,100002.50
2022-11-15T02:28:26.035Z,100019.66
2022-11-15T02:31:41.322Z,100020.75
2022-11-15T02:34:30.466Z,100021.94
2022-11-15T02:37:12.418Z,100020.38
2022-11-15T02:40:45.503Z,100030.91
2022-11-15T02:43:53.361Z,100025.94
2022-11-15T02:46:57.999Z,100010.16
2022-11-15T02:49:32.951Z,100019.50
2022-11-15T02:52:02.581Z,100021.88
2022-11-15T02:54:35.080Z,100019.59
2022-11-15T02:57:13.728Z,100012.63
2022-11-15T03:00:10.437Z,100020.00
2022-11-15T03:03:24.017Z,100012.38
2022-11-15T03:06:46.899Z,100007.50
2022-11-15T03:10:19.518Z,100007.31
2022-11-15T03:13:34.082Z,99991.09
2022-11-15T03:16:40.880Z,100005.38
2022-11-15T03:19:28.524Z,100008.28
2022-11-15T03:22:01.986Z,100004.53
2022-11-15T03:24:37.000Z,100009.72
2022-11-15T03:27:11.567Z,100010.13
2022-11-15T03:29:49.648Z,100009.38
2022-11-15T03:32:31.812Z,100000.06
2022-11-15T03:35:21.328Z,99994.06
2022-11-15T03:38:15.202Z,100007.94
2022-11-15T03:40:54.865Z,100000.00
2022-11-15T03:43:48.622Z,99991.03
2022-11-15T03:46:43.975Z,99977.63
2022-11-15T03:49:37.687Z,99990.69
2022-11-15T03:52:07.719Z,99986.91
2022-11-15T03:54:37.206Z,99973.94
2022-11-15T03:57:06.623Z,99978.16
2022-11-15T03:59:36.101Z,99973.22
2022-11-15T04:02:05.554Z,99965.94
2022-11-15T04:04:34.194Z,99959.59
2022-11-15T04:07:03.820Z,99955.00
2022-11-15T04:09:33.377Z,99943.94
2022-11-15T04:12:03.036Z,99954.63
2022-11-15T04:14:32.476Z,99953.34
2022-11-15T04:17:01.989Z,99963.81
2022-11-15T04:19:50.078Z,99959.19
2022-11-15T04:22:37.926Z,99960.09
2022-11-15T04:25:07.832Z,99963.69
2022-11-15T04:27:37.329Z,99957.75
2022-11-15T04:30:08.385Z,99964.31
2022-11-15T04:32:37.835Z,99948.00
2022-11-15T04:35:08.237Z,99946.91
2022-11-15T04:37:37.672Z,99943.13
2022-11-15T04:40:07.607Z,99938.88
2022-11-15T04:42:37.007Z,99944.09
2022-11-15T04:45:06.019Z,99941.28
2022-11-15T04:47:35.658Z,99943.66
2022-11-15T04:50:06.310Z,99940.75
2022-11-15T04:52:35.823Z,99938.47
2022-11-15T04:55:08.127Z,99937.47
2022-11-15T04:57:37.865Z,99937.31
2022-11-15T05:00:13.475Z,99933.50
2022-11-15T05:03:01.659Z,99933.81
2022-11-15T05:05:31.078Z,99925.84
2022-11-15T05:08:00.516Z,99918.06
2022-11-15T05:10:29.999Z,99912.91
2022-11-15T05:12:59.511Z,99924.66
2022-11-15T05:15:28.966Z,99923.69
2022-11-15T05:18:01.595Z,99917.78
2022-11-15T05:20:31.028Z,99915.19
2022-11-15T05:23:00.555Z,99928.00
2022-11-15T05:25:29.645Z,99930.19
2022-11-15T05:27:59.158Z,99936.97
2022-11-15T05:30:28.620Z,99930.53
2022-11-15T05:32:58.151Z,99931.31
2022-11-15T05:35:42.932Z,99930.34
2022-11-15T05:38:12.369Z,99929.00
2022-11-15T05:40:41.960Z,99928.03
2022-11-15T05:43:12.955Z,99926.56
2022-11-15T05:45:42.438Z,99926.31
2022-11-15T05:48:12.452Z,99925.34
2022-11-15T05:50:47.840Z,99927.34
2022-11-15T05:53:21.342Z,99932.59
2022-11-15T05:55:51.296Z,99932.50
2022-11-15T05:58:22.373Z,99927.38
2022-11-15T06:00:51.933Z,99907.22
2022-11-15T06:03:21.493Z,99901.78
2022-11-15T06:05:51.075Z,99914.88
2022-11-15T06:08:20.528Z,99921.69
2022-11-15T06:10:50.240Z,99926.03
2022-11-15T06:13:19.696Z,99924.00
2022-11-15T06:15:49.120Z,99916.63
2022-11-15T06:18:18.579Z,99913.75
2022-11-15T06:20:48.008Z,99902.16
2022-11-15T06:23:17.589Z,99906.72
2022-11-15T06:25:47.005Z,99904.75
2022-11-15T06:28:16.466Z,99912.88
2022-11-15T06:30:49.187Z,99912.22
2022-11-15T06:33:22.506Z,99912.44
2022-11-15T06:35:51.975Z,99927.00
2022-11-15T06:38:21.500Z,99918.25
2022-11-15T06:40:50.941Z,99914.41
2022-11-15T06:43:20.395Z,99914.94
2022-11-15T06:45:49.880Z,99910.72
2022-11-15T06:48:19.341Z,99910.41
2022-11-15T06:50:57.323Z,99917.13
2022-11-15T06:53:28.909Z,99925.91
2022-11-15T06:56:05.078Z,99930.91
2022-11-15T06:58:34.963Z,99928.53
2022-11-15T07:01:12.195Z,99929.28
2022-11-15T07:03:43.628Z,99934.72
2022-11-15T07:06:12.504Z,99933.69
2022-11-15T07:08:42.885Z,99917.00
2022-11-15T07:11:12.383Z,99924.03
2022-11-15T07:13:41.849Z,99924.84
2022-11-15T07:16:12.705Z,99925.16
2022-11-15T07:18:42.920Z,99920.94
2022-11-15T07:21:13.732Z,99919.78
2022-11-15T07:23:43.194Z,99918.22
2022-11-15T07:26:12.614Z,99933.72
2022-11-15T07:28:42.246Z,99926.34
2022-11-15T07:31:12.779Z,99927.63
2022-11-15T07:33:42.256Z,99929.50
2022-11-15T07:36:11.689Z,99925.38
2022-11-15T07:38:42.996Z,99922.56
2022-11-15T07:41:12.688Z,99919.16
2022-11-15T07:43:41.358Z,99917.53
2022-11-15T07:46:11.029Z,99913.91
2022-11-15T07:48:45.317Z,99898.19
2022-11-15T07:51:17.922Z,99896.22
2022-11-15T07:53:47.389Z,99911.78
2022-11-15T07:56:17.262Z,99914.06
2022-11-15T07:58:48.253Z,99915.28
2022-11-15T08:01:17.858Z,99912.34
2022-11-15T08:03:46.678Z,99902.38
2022-11-15T08:06:15.341Z,99896.03
2022-11-15T08:08:44.787Z,99881.34
2022-11-15T08:11:13.389Z,99888.75
2022-11-15T08:13:42.831Z,99891.47
2022-11-15T08:16:13.134Z,99892.38
2022-11-15T08:18:42.703Z,99886.75
2022-11-15T08:21:21.490Z,99884.97
2022-11-15T08:23:50.955Z,99873.88
2022-11-15T08:26:20.468Z,99864.94
2022-11-15T08:28:49.985Z,99877.34
2022-11-15T08:31:20.639Z,99872.75
2022-11-15T08:33:50.235Z,99867.53
2022-11-15T08:36:20.128Z,99868.31
2022-11-15T08:38:48.882Z,99870.69
2022-11-15T08:41:39.164Z,99871.09
2022-11-15T08:44:08.651Z,99865.13
2022-11-15T08:46:38.192Z,99849.41
2022-11-15T08:49:06.898Z,99851.59
2022-11-15T08:51:36.360Z,99858.63
2022-11-15T08:54:06.033Z,99865.81
2022-11-15T08:56:35.574Z,99874.81
2022-11-15T08:59:05.093Z,99872.59
2022-11-15T09:01:34.719Z,99843.63
2022-11-15T09:04:05.188Z,99863.81
2022-11-15T09:06:34.624Z,99861.91
2022-11-15T09:09:03.996Z,99861.03
2022-11-15T09:11:33.620Z,99857.72
2022-11-15T09:14:03.385Z,99861.94
2022-11-15T09:16:33.452Z,99858.59
2022-11-15T09:19:10.482Z,99862.25
2022-11-15T09:21:41.469Z,99858.91
2022-11-15T09:24:12.824Z,99856.03
2022-11-15T09:26:44.596Z,99842.69
2022-11-15T09:29:14.146Z,99835.84
2022-11-15T09:31:42.007Z,99827.47
2022-11-15T09:34:10.995Z,99830.91
2022-11-15T09:36:41.481Z,99821.16
2022-11-15T09:39:09.390Z,99827.81
2022-11-15T09:42:03.878Z,99832.22
2022-11-15T09:44:50.107Z,99825.91
2022-11-15T09:47:45.147Z,99815.69
2022-11-15T09:50:30.279Z,99812.91
2022-11-15T09:53:00.122Z,99812.25
2022-11-15T09:56:06.972Z,99821.03
2022-11-15T09:59:29.187Z,99803.47
2022-11-15T10:02:10.757Z,99804.47
2022-11-15T10:04:41.617Z,99798.63
2022-11-15T10:07:28.872Z,99797.81
2022-11-15T10:10:33.628Z,99796.06
2022-11-15T10:13:03.681Z,99790.88
2022-11-15T10:15:33.391Z,99795.03
2022-11-15T10:18:50.786Z,99786.41
2022-11-15T10:21:35.724Z,99787.00
2022-11-15T10:24:14.190Z,99794.56
2022-11-15T10:26:50.520Z,99782.03
2022-11-15T10:29:26.693Z,99774.59
2022-11-15T10:31:56.713Z,99776.47
2022-11-15T10:34:28.065Z,99770.59
2022-11-15T10:37:04.634Z,99767.38
2022-11-15T10:39:37.295Z,99764.22
2022-11-15T10:42:29.737Z,99761.13
2022-11-15T10:44:59.306Z,99758.59
2022-11-15T10:47:38.985Z,99741.28
2022-11-15T10:50:33.558Z,99750.59
2022-11-15T10:53:04.039Z,99743.91
2022-11-15T10:55:35.768Z,99741.63
2022-11-15T10:58:36.843Z,99736.94
2022-11-15T11:01:19.505Z,99731.91
2022-11-15T11:04:10.140Z,99738.19
2022-11-15T11:07:01.224Z,99726.25
2022-11-15T11:09:33.574Z,99729.59
2022-11-15T11:12:06.864Z,99724.56
2022-11-15T11:14:40.109Z,99715.69
2022-11-15T11:17:55.536Z,99709.53
2022-11-15T11:20:52.532Z,99712.06
2022-11-15T11:23:34.355Z,99705.66
2022-11-15T11:26:26.036Z,99691.00
2022-11-15T11:29:49.904Z,99689.69
2022-11-15T11:33:12.278Z,99690.91
2022-11-15T11:36:44.721Z,99681.19
2022-11-15T11:39:42.921Z,99682.69
2022-11-15T11:42:43.882Z,99685.56
2022-11-15T11:45:22.277Z,99676.28
2022-11-15T11:48:31.702Z,99675.75
2022-11-15T11:51:29.854Z,99672.16
2022-11-15T11:54:15.040Z,99662.50
2022-11-15T11:56:47.005Z,99659.34
2022-11-15T11:59:51.994Z,99664.66
2022-11-15T12:02:42.798Z,99653.53
2022-11-15T12:05:30.323Z,99653.41
2022-11-15T12:08:29.707Z,99642.72
2022-11-15T12:12:05.512Z,99644.00
2022-11-15T12:14:45.450Z,99646.94
2022-11-15T12:17:19.254Z,99634.53
2022-11-15T12:19:49.033Z,99644.44
2022-11-15T12:22:32.306Z,99640.31
2022-11-15T12:25:21.063Z,99635.19
2022-11-15T12:28:08.914Z,99636.91
2022-11-15T12:31:03.330Z,99625.25
2022-11-15T12:33:47.889Z,99618.78
2022-11-15T12:36:23.347Z,99631.06
2022-11-15T12:39:44.216Z,99625.03
2022-11-15T12:42:13.623Z,99615.91
2022-11-15T12:44:42.945Z,99616.81
2022-11-15T12:47:11.476Z,99602.50
2022-11-15T12:49:40.897Z,99595.44
2022-11-15T12:52:11.848Z,99601.09
2022-11-15T12:54:44.179Z,99591.97
2022-11-15T12:57:16.451Z,99589.16
2022-11-15T13:00:04.326Z,99585.91
2022-11-15T13:02:46.505Z,99580.44
2022-11-15T13:05:19.434Z,99581.28
2022-11-15T13:07:48.830Z,99571.38
2022-11-15T13:10:28.184Z,99574.19
2022-11-15T13:13:04.902Z,99568.16
2022-11-15T13:16:01.051Z,99571.69
2022-11-15T13:18:41.512Z,99578.78
2022-11-15T13:21:44.337Z,99584.06
2022-11-15T13:24:17.983Z,99586.31
2022-11-15T13:26:47.601Z,99578.94
2022-11-15T13:29:20.222Z,99585.25
2022-11-15T13:31:50.552Z,99575.66
2022-11-15T13:37:23.596Z,99584.50
2022-11-15T13:39:53.057Z,99583.75
2022-11-15T13:42:23.159Z,99571.69
2022-11-15T13:45:06.902Z,99580.19
2022-11-15T13:47:35.578Z,99575.19
2022-11-15T13:50:11.240Z,99572.25
2022-11-15T13:52:45.603Z,99570.69
2022-11-15T13:55:21.757Z,99553.72
2022-11-15T13:58:00.555Z,99551.28
2022-11-15T14:00:44.506Z,99542.25
2022-11-15T14:03:27.123Z,99538.16
2022-11-15T14:06:15.972Z,99532.44
2022-11-15T14:09:34.558Z,99533.31
2022-11-15T14:12:35.389Z,99529.44
2022-11-15T14:15:37.583Z,99514.59
2022-11-15T14:18:44.900Z,99502.41
2022-11-15T14:21:15.188Z,99511.22
2022-11-15T14:23:44.951Z,99502.81
2022-11-15T14:26:35.796Z,99498.19
2022-11-15T14:29:43.890Z,99497.94
2022-11-15T14:32:26.943Z,99493.00
2022-11-15T14:35:05.250Z,99490.34
2022-11-15T14:37:36.054Z,99493.00
2022-11-15T14:40:10.664Z,99494.66
2022-11-15T14:42:40.239Z,99487.28
2022-11-15T14:45:22.876Z,99483.09
2022-11-15T14:47:55.082Z,99488.44
2022-11-15T14:50:24.595Z,99482.66
2022-11-15T14:52:54.139Z,99474.00
2022-11-15T14:55:30.134Z,99477.78
2022-11-15T14:58:00.823Z,99467.56
2022-11-15T15:00:35.324Z,99464.81
2022-11-15T15:03:06.928Z,99455.78
2022-11-15T15:05:45.590Z,99458.69
2022-11-15T15:08:15.232Z,99464.72
2022-11-15T15:10:47.199Z,99468.19
2022-11-15T15:13:25.634Z,99464.09
2022-11-15T15:15:55.208Z,99470.69
2022-11-15T15:18:24.670Z,99467.16
2022-11-15T15:21:01.211Z,99469.81
2022-11-15T15:23:32.166Z,99468.97
2022-11-15T15:26:01.635Z,99453.69
2022-11-15T15:28:34.727Z,99456.63
2022-11-15T15:31:07.008Z,99449.31
2022-11-15T15:33:34.863Z,99433.78
2022-11-15T15:36:05.192Z,99448.06
2022-11-15T15:38:35.218Z,99450.97
2022-11-15T15:41:05.242Z,99456.00
2022-11-15T15:43:33.024Z,99452.78
2022-11-15T15:46:01.242Z,99447.16
2022-11-15T15:48:32.065Z,99448.63
2022-11-15T15:51:00.312Z,99448.75
2022-11-15T15:53:30.134Z,99456.88
2022-11-15T15:55:59.913Z,99451.66
2022-11-15T15:58:31.119Z,99449.31
2022-11-15T16:00:59.315Z,99459.53
2022-11-15T16:03:28.882Z,99461.41
2022-11-15T16:05:56.783Z,99450.94
2022-11-15T16:08:42.532Z,99445.50
2022-11-15T16:11:17.457Z,99442.25
2022-11-15T16:13:47.130Z,99431.72
2022-11-15T16:16:22.537Z,99434.00
2022-11-15T16:18:50.290Z,99438.28
2022-11-15T16:21:19.936Z,99443.00
2022-11-15T16:23:54.306Z,99437.53
2022-11-15T16:26:30.514Z,99440.22
2022-11-15T16:28:58.783Z,99445.38
2022-11-15T16:31:28.399Z,99443.16
2022-11-15T16:34:00.139Z,99430.59
2022-11-15T16:36:35.009Z,99429.75
2022-11-15T16:39:05.258Z,99434.19
2022-11-15T16:41:34.867Z,99436.78
2022-11-15T16:44:02.658Z,99424.78
2022-11-15T16:46:32.229Z,99425.69
2022-11-15T16:49:01.731Z,99415.63
2022-11-15T16:51:29.502Z,99425.97
2022-11-15T16:53:59.866Z,99418.97
2022-11-15T16:56:32.062Z,99415.78
2022-11-15T16:59:02.639Z,99413.53
2022-11-15T17:01:46.727Z,99415.91
2022-11-15T17:04:19.918Z,99411.88
2022-11-15T17:06:50.241Z,99413.44
2022-11-15T17:09:26.143Z,99406.28
2022-11-15T17:11:55.653Z,99402.53
2022-11-15T17:14:26.023Z,99406.16
2022-11-15T17:16:56.359Z,99402.88
2022-11-15T17:19:25.875Z,99400.59
2022-11-15T17:21:55.401Z,99397.09
2022-11-15T17:24:23.222Z,99395.00
2022-11-15T17:26:52.760Z,99392.06
2022-11-15T17:29:22.347Z,99397.94
2022-11-15T17:31:50.075Z,99395.69
2022-11-15T17:34:19.198Z,99389.47
2022-11-15T17:36:50.036Z,99386.53
2022-11-15T17:39:19.732Z,99383.44
2022-11-15T17:41:49.266Z,99380.69
2022-11-15T17:44:18.785Z,99381.81
2022-11-15T17:46:48.279Z,99380.25
2022-11-15T17:49:17.787Z,99379.03
2022-11-15T17:51:50.183Z,99372.91
2022-11-15T17:54:19.992Z,99362.47
2022-11-15T17:56:49.619Z,99367.81
2022-11-15T17:59:21.588Z,99361.22
2022-11-15T18:01:51.461Z,99359.97
2022-11-15T18:04:21.224Z,99359.78
2022-11-15T18:06:50.830Z,99364.22
2022-11-15T18:09:21.974Z,99358.88
2022-11-15T18:11:51.856Z,99335.31
2022-11-15T18:14:21.495Z,99349.91
2022-11-15T18:16:51.031Z,99350.31
2022-11-15T18:19:20.678Z,99353.31
2022-11-15T18:21:56.428Z,99343.88
2022-11-15T18:24:35.249Z,99344.34
2022-11-15T18:27:06.657Z,99344.03
2022-11-15T18:29:38.070Z,99347.47
2022-11-15T18:32:12.618Z,99346.31
2022-11-15T18:34:42.238Z,99344.81
2022-11-15T18:37:11.899Z,99337.50
2022-11-15T18:39:44.033Z,99334.53
2022-11-15T18:42:13.584Z,99334.28
2022-11-15T18:44:43.146Z,99335.50
2022-11-15T18:47:10.885Z,99338.34
2022-11-15T18:49:40.441Z,99330.78
2022-11-15T18:52:09.960Z,99329.47
2022-11-15T18:54:39.507Z,99336.53
2022-11-15T18:57:09.056Z,99326.03
2022-11-15T18:59:38.654Z,99332.47
2022-11-15T19:02:13.840Z,99323.34
2022-11-15T19:04:43.356Z,99325.41
2022-11-15T19:07:11.294Z,99323.53
2022-11-15T19:09:41.674Z,99316.97
2022-11-15T19:12:12.616Z,99320.75
2022-11-15T19:14:42.247Z,99314.31
2022-11-15T19:17:11.686Z,99317.75
2022-11-15T19:19:39.404Z,99313.50
2022-11-15T19:22:08.869Z,99312.13
2022-11-15T19:24:38.367Z,99303.38
2022-11-15T19:27:06.063Z,99299.91
2022-11-15T19:29:34.723Z,99298.69
2022-11-15T19:32:05.412Z,99296.38
2022-11-15T19:34:34.877Z,99298.88
2022-11-15T19:37:05.457Z,99306.72
2022-11-15T19:39:39.776Z,99297.84
2022-11-15T19:42:12.078Z,99295.69
2022-11-15T19:44:41.645Z,99288.69
2022-11-15T19:47:11.356Z,99294.81
2022-11-15T19:49:40.919Z,99288.09
2022-11-15T19:52:10.488Z,99281.09
2022-11-15T19:54:39.958Z,99277.31
2022-11-15T19:57:09.413Z,99268.19
2022-11-15T19:59:38.844Z,99270.41
2022-11-15T20:02:06.867Z,99267.59
2022-11-15T20:04:36.424Z,99256.47
2022-11-15T20:07:05.923Z,99263.72
2022-11-15T20:09:35.392Z,99263.19
2022-11-15T20:12:05.253Z,99261.66
2022-11-15T20:14:34.730Z,99261.47
2022-11-15T20:17:04.200Z,99255.78
2022-11-15T20:19:33.859Z,99264.16
2022-11-15T20:22:01.577Z,99250.44
2022-11-15T20:24:31.491Z,99242.94
2022-11-15T20:27:00.934Z,99252.50
2022-11-15T20:29:30.367Z,99246.66
2022-11-15T20:31:59.859Z,99228.09
2022-11-15T20:34:29.439Z,99229.13
2022-11-15T20:36:58.924Z,99225.44
2022-11-15T20:39:28.418Z,99229.16
2022-11-15T20:41:57.866Z,99222.66
2022-11-15T20:44:27.393Z,99217.84
2022-11-15T20:46:57.136Z,99220.13
2022-11-15T20:49:24.872Z,99221.41
2022-11-15T20:51:53.023Z,99223.81
2022-11-15T20:54:22.605Z,99222.00
2022-11-15T20:56:52.167Z,99219.22
2022-11-15T20:59:21.569Z,99211.31
2022-11-15T21:01:51.118Z,99210.44
2022-11-15T21:04:18.983Z,99203.19
2022-11-15T21:06:49.589Z,99201.06
2022-11-15T21:09:36.480Z,99201.06
2022-11-15T21:12:12.438Z,99207.31
2022-11-15T21:14:44.266Z,99200.94
2022-11-15T21:17:13.990Z,99187.25
2022-11-15T21:19:44.634Z,99195.47
2022-11-15T21:22:15.680Z,99183.91
2022-11-15T21:24:45.290Z,99194.84
2022-11-15T21:27:15.548Z,99206.28
2022-11-15T21:29:48.707Z,99200.63
2022-11-15T21:32:18.428Z,99193.53
2022-11-15T21:34:48.018Z,99183.75
2022-11-15T21:37:17.648Z,99179.94
2022-11-15T21:39:47.191Z,99183.47
2022-11-15T21:42:16.667Z,99184.59
2022-11-15T21:44:46.308Z,99170.53
2022-11-15T21:47:16.474Z,99173.91
2022-11-15T21:49:46.053Z,99176.84
2022-11-15T21:52:15.560Z,99168.84
2022-11-15T21:54:45.019Z,99166.47
2022-11-15T21:57:14.622Z,99157.59
2022-11-15T22:00:02.297Z,99154.25
2022-11-15T22:02:32.060Z,99163.03
2022-11-15T22:05:01.561Z,99171.41
2022-11-15T22:07:31.146Z,99165.53
2022-11-15T22:10:00.601Z,99165.09
2022-11-15T22:12:30.052Z,99162.03
2022-11-15T22:14:59.511Z,99161.44
2022-11-15T22:17:49.154Z,99156.16
2022-11-15T22:23:09.290Z,99147.84
2022-11-15T22:25:38.933Z,99131.66
2022-11-15T22:28:08.630Z,99135.50
2022-11-15T22:30:41.176Z,99133.16
2022-11-15T22:33:09.181Z,99128.16
2022-11-15T22:35:38.172Z,99131.66
2022-11-15T22:38:08.799Z,99135.31
2022-11-15T22:40:37.974Z,99133.59
2022-11-15T22:43:08.394Z,99131.25
2022-11-15T22:45:38.086Z,99128.84
2022-11-15T22:48:06.830Z,99135.31
2022-11-15T22:50:34.707Z,99126.88
2022-11-15T22:53:04.331Z,99113.13
2022-11-15T22:55:34.031Z,99098.31
2022-11-15T22:58:03.677Z,99102.06
2022-11-15T23:00:33.392Z,99080.66
2022-11-15T23:03:03.551Z,99097.13
2022-11-15T23:05:33.168Z,99101.09
2022-11-15T23:08:02.888Z,99093.78
2022-11-15T23:10:51.218Z,99086.38
2022-11-15T23:13:20.843Z,99085.81
2022-11-15T23:16:10.645Z,99080.56
2022-11-15T23:18:42.373Z,99071.97
2022-11-15T23:21:54.760Z,99081.91
2022-11-15T23:24:25.319Z,99076.34
2022-11-15T23:26:58.326Z,99082.28
2022-11-15T23:29:29.472Z,99080.63
2022-11-15T23:32:16.824Z,99083.78
2022-11-15T23:34:47.126Z,99077.06
2022-11-15T23:37:16.525Z,99076.16
2022-11-15T23:39:46.117Z,99066.16
2022-11-15T23:42:20.110Z,99068.91
2022-11-15T23:44:51.110Z,99062.00
2022-11-15T23:47:22.051Z,99059.66
2022-11-15T23:49:52.490Z,99051.56
2022-11-15T23:52:23.354Z,99037.97
2022-11-15T23:54:51.250Z,99031.00
2022-11-15T23:57:21.125Z,99027.09
2022-11-15T23:59:50.811Z,99020.38
